createdAt,value
2018-03-15T00:05:05.669Z,73.00
2018-03-15T00:10:33.812Z,73.10
2018-03-15T00:16:01.961Z,73.20
2018-03-15T00:21:30.162Z,73.30
2018-03-15T00:26:58.362Z,73.30
2018-03-15T00:32:27.321Z,73.30
2018-03-15T00:37:55.496Z,73.30
2018-03-15T00:43:23.733Z,73.30
2018-03-15T00:48:52.708Z,73.40
2018-03-15T00:54:20.871Z,73.40
2018-03-15T00:59:54.397Z,73.60
2018-03-15T01:05:22.602Z,73.60
2018-03-15T01:10:50.763Z,73.70
2018-03-15T01:16:18.898Z,73.90
2018-03-15T01:21:47.846Z,74.10
2018-03-15T01:27:16.771Z,74.10
2018-03-15T01:32:45.712Z,74.40
2018-03-15T01:38:14.629Z,74.40
2018-03-15T01:43:43.700Z,74.30
2018-03-15T01:49:12.611Z,74.50
2018-03-15T01:54:40.981Z,75.20
2018-03-15T02:00:09.130Z,74.60
2018-03-15T02:05:39.314Z,74.70
2018-03-15T02:11:07.495Z,74.70
2018-03-15T02:16:35.828Z,74.70
2018-03-15T02:22:04.064Z,74.60
2018-03-15T02:27:32.317Z,74.60
2018-03-15T02:33:00.528Z,74.50
2018-03-15T02:38:28.694Z,74.80
2018-03-15T02:43:56.864Z,74.60
2018-03-15T02:49:26.018Z,74.60
2018-03-15T02:54:54.195Z,74.60
2018-03-15T03:00:22.419Z,74.60
2018-03-15T03:05:50.597Z,74.70
2018-03-15T03:11:20.459Z,74.70
2018-03-15T03:16:49.372Z,74.70
2018-03-15T03:22:17.526Z,74.70
2018-03-15T03:27:46.426Z,74.90
2018-03-15T03:33:16.539Z,74.90
2018-03-15T03:38:44.748Z,74.90
2018-03-15T03:44:13.679Z,74.90
2018-03-15T03:49:43.579Z,75.00
2018-03-15T03:55:12.549Z,75.10
2018-03-15T04:00:40.697Z,75.10
2018-03-15T04:06:09.636Z,75.20
2018-03-15T04:11:37.860Z,75.20
2018-03-15T04:17:07.060Z,75.20
2018-03-15T04:22:35.247Z,75.10
2018-03-15T04:28:04.383Z,75.10
2018-03-15T04:33:32.580Z,75.20
2018-03-15T04:39:00.737Z,75.10
2018-03-15T04:44:28.879Z,75.20
2018-03-15T04:49:58.002Z,75.20
2018-03-15T04:55:26.162Z,75.30
2018-03-15T05:00:54.323Z,75.30
2018-03-15T05:06:22.479Z,75.30
2018-03-15T05:11:50.660Z,75.30
2018-03-15T05:17:19.791Z,75.30
2018-03-15T05:22:49.686Z,75.30
2018-03-15T05:28:18.042Z,75.50
2018-03-15T05:33:46.977Z,76.00
2018-03-15T05:39:15.147Z,75.60
2018-03-15T05:44:43.304Z,75.50
2018-03-15T05:50:11.463Z,75.50
2018-03-15T05:55:42.271Z,75.60
2018-03-15T06:01:11.181Z,75.80
2018-03-15T06:06:40.085Z,75.70
2018-03-15T06:12:08.327Z,75.70
2018-03-15T06:17:36.576Z,75.80
2018-03-15T06:23:05.503Z,75.80
2018-03-15T06:28:33.845Z,75.80
2018-03-15T06:34:02.020Z,75.70
2018-03-15T06:39:30.176Z,75.80
2018-03-15T06:44:58.306Z,75.70
2018-03-15T06:50:26.829Z,75.60
2018-03-15T06:55:55.724Z,75.60
2018-03-15T07:01:23.951Z,75.70
2018-03-15T07:06:52.119Z,75.40
2018-03-15T07:12:20.282Z,75.50
2018-03-15T07:17:48.421Z,75.50
2018-03-15T07:23:16.562Z,75.60
2018-03-15T07:28:45.586Z,75.30
2018-03-15T07:34:15.450Z,75.10
2018-03-15T07:39:44.368Z,75.00
2018-03-15T07:45:12.541Z,74.90
2018-03-15T07:50:40.720Z,75.10
2018-03-15T07:56:09.653Z,74.80
2018-03-15T08:01:37.802Z,74.80
2018-03-15T08:07:05.934Z,74.30
2018-03-15T08:12:34.304Z,74.40
2018-03-15T08:18:02.475Z,74.40
2018-03-15T08:23:30.608Z,74.10
2018-03-15T08:28:59.540Z,73.70
2018-03-15T08:34:27.677Z,73.70
2018-03-15T08:39:55.867Z,73.70
2018-03-15T08:45:24.017Z,73.30
2018-03-15T08:50:52.239Z,73.00
2018-03-15T08:56:20.394Z,72.60
2018-03-15T09:01:48.560Z,72.30
2018-03-15T09:07:16.706Z,72.00
2018-03-15T09:12:44.876Z,71.70
2018-03-15T09:18:13.014Z,71.70
2018-03-15T09:23:41.957Z,71.10
2018-03-15T09:29:10.109Z,70.90
2018-03-15T09:34:38.300Z,70.70
2018-03-15T09:40:06.396Z,70.60
2018-03-15T09:45:34.595Z,70.90
2018-03-15T09:51:03.507Z,69.80
2018-03-15T09:56:31.666Z,69.80
2018-03-15T10:01:59.807Z,69.50
2018-03-15T10:07:27.961Z,69.10
2018-03-15T10:13:06.016Z,69.20
2018-03-15T10:18:37.865Z,69.30
2018-03-15T10:24:06.006Z,68.70
2018-03-15T10:29:34.917Z,68.00
2018-03-15T10:35:08.567Z,68.00
2018-03-15T10:40:37.513Z,67.40
2018-03-15T10:46:05.686Z,66.70
2018-03-15T10:51:34.491Z,67.00
2018-03-15T10:57:03.398Z,66.50
2018-03-15T11:02:37.462Z,66.40
2018-03-15T11:08:11.307Z,65.00
2018-03-15T11:13:39.499Z,64.80
2018-03-15T11:24:46.859Z,63.70
2018-03-15T11:30:16.912Z,62.80
2018-03-15T11:35:45.296Z,61.80
2018-03-15T11:41:13.477Z,61.80
2018-03-15T11:46:41.628Z,60.90
2018-03-15T11:52:09.788Z,61.30
2018-03-15T11:57:38.030Z,60.70
2018-03-15T12:03:06.950Z,59.90
2018-03-15T12:08:35.095Z,59.90
2018-03-15T12:14:03.280Z,59.60
2018-03-15T12:19:32.230Z,58.00
2018-03-15T12:25:00.375Z,57.90
2018-03-15T12:30:28.555Z,58.20
2018-03-15T12:35:56.734Z,57.90
2018-03-15T12:41:24.943Z,57.00
2018-03-15T12:46:53.096Z,56.90
2018-03-15T12:52:21.324Z,56.30
2018-03-15T12:57:49.802Z,56.20
2018-03-15T13:03:17.951Z,55.20
2018-03-15T13:08:46.131Z,54.80
2018-03-15T13:14:15.061Z,51.60
2018-03-15T13:19:43.225Z,51.60
2018-03-15T13:25:11.462Z,50.40
2018-03-15T13:36:38.416Z,51.80
2018-03-15T13:42:06.599Z,52.80
2018-03-15T13:47:35.640Z,53.20
2018-03-15T13:53:03.853Z,53.10
2018-03-15T13:58:32.032Z,53.20
2018-03-15T14:04:00.247Z,53.60
2018-03-15T14:09:28.406Z,53.50
2018-03-15T14:14:56.565Z,53.80
2018-03-15T14:20:24.735Z,53.90
2018-03-15T14:25:52.900Z,54.20
2018-03-15T14:31:21.101Z,54.30
2018-03-15T14:36:49.283Z,54.60
2018-03-15T14:42:18.364Z,54.80
2018-03-15T14:47:47.293Z,55.20
2018-03-15T14:53:15.438Z,55.20
2018-03-15T14:58:43.594Z,55.40
2018-03-15T15:04:11.771Z,56.30
2018-03-15T15:09:40.696Z,57.10
2018-03-15T15:15:09.644Z,57.40
2018-03-15T15:20:39.046Z,57.70
2018-03-15T15:26:07.280Z,57.70
2018-03-15T15:31:35.429Z,57.80
2018-03-15T15:37:03.645Z,57.90
2018-03-15T15:42:31.856Z,58.20
2018-03-15T15:48:00.255Z,58.30
2018-03-15T15:53:28.442Z,58.60
2018-03-15T15:58:57.369Z,58.80
2018-03-15T16:04:25.599Z,58.80
2018-03-15T16:09:54.581Z,59.20
2018-03-15T16:15:22.749Z,59.20
2018-03-15T16:20:50.898Z,60.30
2018-03-15T16:26:19.185Z,60.40
2018-03-15T16:31:51.644Z,60.70
2018-03-15T16:37:20.735Z,61.10
2018-03-15T16:42:50.616Z,61.00
2018-03-15T16:48:18.838Z,61.20
2018-03-15T16:53:47.009Z,61.50
2018-03-15T16:59:44.939Z,61.80
2018-03-15T17:05:18.336Z,61.80
2018-03-15T17:10:47.471Z,62.10
2018-03-15T17:16:16.396Z,62.70
2018-03-15T17:21:44.796Z,62.70
2018-03-15T17:27:12.975Z,63.00
2018-03-15T17:32:41.952Z,63.30
2018-03-15T17:38:13.572Z,63.40
2018-03-15T17:43:51.489Z,63.60
2018-03-15T17:49:19.670Z,63.90
2018-03-15T17:54:49.167Z,64.30
2018-03-15T18:00:17.523Z,64.30
2018-03-15T18:05:46.155Z,64.40
2018-03-15T18:11:14.628Z,64.60
2018-03-15T18:16:43.046Z,64.80
2018-03-15T18:22:23.725Z,65.10
2018-03-15T18:28:22.907Z,65.60
2018-03-15T18:33:53.167Z,65.60
2018-03-15T18:39:21.911Z,65.70
2018-03-15T18:44:52.378Z,65.80
2018-03-15T18:50:21.651Z,66.10
2018-03-15T18:55:49.835Z,66.20
2018-03-15T19:01:20.439Z,66.30
2018-03-15T19:06:49.360Z,66.50
2018-03-15T19:12:20.220Z,66.50
2018-03-15T19:17:51.961Z,66.80
2018-03-15T19:23:25.053Z,66.80
2018-03-15T19:28:59.496Z,67.00
2018-03-15T19:34:29.669Z,67.30
2018-03-15T19:45:41.141Z,67.40
2018-03-15T19:56:52.248Z,67.50
2018-03-15T20:02:21.834Z,67.70
2018-03-15T20:07:51.206Z,67.80
2018-03-15T20:13:20.857Z,67.80
2018-03-15T20:19:01.431Z,67.90
2018-03-15T20:24:30.762Z,68.00
2018-03-15T20:30:02.987Z,68.10
2018-03-15T20:35:31.400Z,68.10
2018-03-15T20:41:21.298Z,68.10
2018-03-15T20:53:06.158Z,68.50
2018-03-15T20:58:34.342Z,68.50
2018-03-15T21:04:02.908Z,68.60
2018-03-15T21:09:31.790Z,68.70
2018-03-15T21:15:00.242Z,68.80
2018-03-15T21:20:50.715Z,69.50
2018-03-15T21:26:19.859Z,69.50
2018-03-15T21:31:48.889Z,69.50
2018-03-15T21:37:26.274Z,69.60
2018-03-15T21:42:54.456Z,69.60
2018-03-15T21:48:22.671Z,69.30
2018-03-15T21:53:51.636Z,69.10
2018-03-15T21:59:23.920Z,69.10
2018-03-15T22:04:52.261Z,69.10
2018-03-15T22:10:23.824Z,69.00
2018-03-15T22:15:52.114Z,69.00
2018-03-15T22:21:20.441Z,68.90
2018-03-15T22:26:49.621Z,68.80
2018-03-15T22:32:24.434Z,68.70
2018-03-15T22:37:53.260Z,68.40
2018-03-15T22:43:22.441Z,68.10
2018-03-15T22:48:50.921Z,67.70
2018-03-15T22:54:19.319Z,67.40
2018-03-15T22:59:47.772Z,67.10
2018-03-15T23:05:17.907Z,66.50
2018-03-15T23:10:46.356Z,66.50
2018-03-15T23:16:14.799Z,66.30
2018-03-15T23:21:44.004Z,66.20
2018-03-15T23:27:14.400Z,66.20
2018-03-15T23:32:43.608Z,67.00
2018-03-15T23:38:18.361Z,66.90
2018-03-15T23:43:46.805Z,67.40
2018-03-15T23:49:17.212Z,68.00
2018-03-15T23:54:45.969Z,68.40
